Rossland, Canada
Current Conditions -  °F | °C
As of 8:38 AM on Wednesday 26 Nov 2014 (Local Time) from CYCG Reporting Station
Light Snow Light Snow  
Wind Chill: 32°   Ceiling: 1600
Heat Index: 32°   Visibility: 2mi
Dew Point: 32°   Wind: 0mph
Humidity: 100%   Direction: NA
Pressure: 30.18"   Gusts: NA
Location:  49.08°N, 117.8°W
Report Text: CYCG 261638Z 00000KT 2SM -SN BR OVC016 00/00 A3018 RMK SN3SC5 SLP240
Loading
Personal Weather Stations






























Interactive Weather Map New forecast layout! Learn more

10-Day Weather Forecast

Advertisements
Track Severe Weather on mobile